Voyager — C6WC2 — position and weather

sailwx.info

Track history (hours):
 
Tides and Currents Weather Stations Pressure Air Temp Water Temp Dewpoint Dewpoint Depression Visibility Wind Speed Wind Dir Waves Ship Positions

Voyager

Last reported at 2014-Jul-30 12:22 UTC. Time now 2014-Jul-30 13:16 UTC.
Position N 54°38' W 008°26'.

Length 151 m; draft 6 m.

Type: Passenger vessel. MMSI: 309695000.

Date/timePositionNaut miles runAvg speedWind from/ knotsBaromVisibWave heightAir tempDewpointWater temp
2014-Jul-30 12:22N 54°38' W 008°26'0 0.0
2014-Jul-30 11:33N 54°38' W 008°26'0 0.0
2014-Jul-30 10:34N 54°38' W 008°26'0 0.0
2014-Jul-30 09:25N 54°38' W 008°26'0 0.0
2014-Jul-30 08:25N 54°38' W 008°26'0 0.0
2014-Jul-30 07:33N 54°38' W 008°26'6 5.6
2014-Jul-30 06:34N 54°34' W 008°34'4514.5
2014-Jul-30 03:29N 54°26' W 009°49'1515.5
2014-Jul-30 02:33N 54°21' W 010°12'1814.8
2014-Jul-30 01:22N 54°06' W 010°28'1415.5
2014-Jul-30 00:29N 53°52' W 010°34'1516.0
2014-Jul-29 23:33N 53°38' W 010°40'1514.8
2014-Jul-29 22:32N 53°23' W 010°39'1615.5
2014-Jul-29 21:30N 53°08' W 010°27'4214.3
2014-Jul-29 18:33N 52°32' W 009°52'5 0.4
2014-Jul-29 05:33N 52°34' W 009°44'6 6.1
2014-Jul-29 04:30N 52°31' W 009°53'19 9.5
2014-Jul-29 02:31N 52°20' W 010°18'1010.6
2014-Jul-29 01:33N 52°14' W 010°32'1010.3
2014-Jul-29 00:33N 52°07' W 010°45'3510.9
2014-Jul-28 21:18N 51°33' W 010°33'811.1
2014-Jul-28 20:32N 51°25' W 010°28'1111.4
2014-Jul-28 19:33N 51°18' W 010°14'1212.3
2014-Jul-28 18:33N 51°11' W 009°58'1212.0
2014-Jul-28 17:33N 51°04' W 009°42'1211.4
2014-Jul-28 16:28N 50°57' W 009°26'331 9.0
2014-Jul-27 03:30N 50°25' W 000°46'1516.0
2014-Jul-27 02:33N 50°28' W 000°23'1716.6
2014-Jul-27 01:33N 50°31' E 000°03'1716.7
2014-Jul-27 00:33N 50°36' E 000°28'1515.5
2014-Jul-26 23:33N 50°43' E 000°50'1211.7
2014-Jul-26 22:33N 50°49' E 001°05'1414.3
2014-Jul-26 21:33N 50°58' E 001°22'1716.5
2014-Jul-26 20:33N 51°10' E 001°40'1817.9
2014-Jul-26 19:34N 51°24' E 001°58'1615.4
2014-Jul-26 18:33N 51°21' E 002°22'1515.1
2014-Jul-26 17:32N 51°22' E 002°47'9 9.8
2014-Jul-26 16:34N 51°14' E 002°56'0 0.2
2014-Jul-26 15:32N 51°14' E 002°56'0 0.0
2014-Jul-26 14:32N 51°14' E 002°56'0 0.0
2014-Jul-26 13:32N 51°14' E 002°56'0 0.0
2014-Jul-26 12:29N 51°14' E 002°56'0 0.0
2014-Jul-26 11:29N 51°14' E 002°56'0 0.0
2014-Jul-26 10:29N 51°14' E 002°56'4 4.5
2014-Jul-26 09:33N 51°17' E 002°52'1413.6
2014-Jul-26 08:29N 51°31' E 002°43'1717.7
2014-Jul-26 07:31N 51°48' E 002°44'6516.2
2014-Jul-26 03:32N 52°43' E 003°38'1514.6
2014-Jul-26 02:31N 52°54' E 003°54'1815.5
2014-Jul-26 01:20N 53°07' E 004°17'1316.5
2014-Jul-26 00:33N 53°17' E 004°29'1616.1
2014-Jul-25 23:33N 53°31' E 004°44'1716.9
2014-Jul-25 22:33N 53°36' E 005°11'1616.2
2014-Jul-25 21:33N 53°40' E 005°37'1515.4
2014-Jul-25 20:33N 53°45' E 006°02'1514.8
2014-Jul-25 19:33N 53°50' E 006°26'1514.7
2014-Jul-25 18:33N 53°53' E 006°50'1615.3
2014-Jul-25 17:31N 53°58' E 007°16'1616.3
2014-Jul-25 16:33N 54°02' E 007°42'1716.7
2014-Jul-25 15:33N 54°01' E 008°10'1817.7
2014-Jul-25 14:33N 53°56' E 008°39'1413.9
2014-Jul-25 13:33N 53°52' E 009°02'5 4.9
2014-Jul-25 12:33N 53°54' E 009°09'8 7.9
2014-Jul-25 11:33N 54°00' E 009°18'10 7.7
2014-Jul-25 10:16N 54°09' E 009°23'5 5.4
2014-Jul-25 09:21N 54°11' E 009°31'58 7.0
2014-Jul-25 01:06N 54°36' E 011°01'916.3
2014-Jul-25 00:33N 54°35' E 011°16'1716.8
2014-Jul-24 23:34N 54°27' E 011°42'1615.6
2014-Jul-24 22:33N 54°27' E 012°09'1616.0
2014-Jul-24 21:33N 54°41' E 012°25'1514.7
2014-Jul-24 20:33N 54°52' E 012°42'1615.9
2014-Jul-24 19:33N 55°08' E 012°39'1515.4
2014-Jul-24 18:33N 55°23' E 012°39'1312.6
2014-Jul-24 17:33N 55°35' E 012°42'8 7.9
2014-Jul-24 16:33N 55°43' E 012°38'2 1.5
2014-Jul-24 15:31N 55°42' E 012°36'0 0.0
2014-Jul-24 14:31N 55°42' E 012°36'0 0.0
2014-Jul-24 13:31N 55°42' E 012°36'0 0.0
2014-Jul-24 12:31N 55°42' E 012°36'0 0.0
2014-Jul-24 11:31N 55°42' E 012°36'0 0.0
2014-Jul-24 10:31N 55°42' E 012°36'0 0.0
2014-Jul-24 09:31N 55°42' E 012°36'0 0.0
2014-Jul-24 08:31N 55°42' E 012°36'0 0.0
2014-Jul-24 07:31N 55°42' E 012°36'3 3.1
2014-Jul-24 06:34N 55°43' E 012°41'1111.1
2014-Jul-24 05:34N 55°32' E 012°43'1111.4
2014-Jul-24 04:33N 55°21' E 012°40'1312.7
2014-Jul-24 03:34N 55°16' E 013°00'1414.4
2014-Jul-24 02:33N 55°15' E 013°25'1514.7
2014-Jul-24 01:34N 55°14' E 013°51'1515.1
2014-Jul-24 00:34N 55°13' E 014°18'1515.0
2014-Jul-23 23:33N 55°25' E 014°34'1514.8
2014-Jul-23 22:33N 55°33' E 014°56'1515.0
2014-Jul-23 21:33N 55°41' E 015°19'1515.1
2014-Jul-23 20:33N 55°48' E 015°42'1515.2
2014-Jul-23 19:33N 55°56' E 016°06'1515.1
2014-Jul-23 18:33N 56°04' E 016°29'1514.3
2014-Jul-23 17:32N 56°14' E 016°48'1514.9
2014-Jul-23 16:33N 56°27' E 016°57'1514.9
2014-Jul-23 15:33N 56°41' E 017°08'1515.2
2014-Jul-23 14:33N 56°55' E 017°18'1615.5
2014-Jul-23 13:33N 57°10' E 017°28'1615.6
2014-Jul-23 12:33N 57°24' E 017°38'1515.0
2014-Jul-23 11:33N 57°34' E 017°59'9 9.0
2014-Jul-23 10:31N 57°38' E 018°15'0 0.3
2014-Jul-23 09:28N 57°38' E 018°16'0 0.0
2014-Jul-23 08:28N 57°38' E 018°16'0 0.0
2014-Jul-23 07:31N 57°38' E 018°16'0 0.0
2014-Jul-23 06:31N 57°38' E 018°16'0 0.0
2014-Jul-23 05:31N 57°38' E 018°16'0 0.0
2014-Jul-23 04:31N 57°38' E 018°16'5 5.2
2014-Jul-23 03:33N 57°43' E 018°17'1313.4
2014-Jul-23 02:33N 57°56' E 018°23'1513.9
2014-Jul-23 01:29N 58°11' E 018°30'1313.9
2014-Jul-23 00:33N 58°23' E 018°36'1414.4
2014-Jul-22 23:33N 58°37' E 018°44'1414.2
2014-Jul-22 22:33N 58°51' E 018°51'35 7.1
2014-Jul-22 17:34N 59°20' E 018°11'3 2.6
2014-Jul-22 16:28N 59°19' E 018°05'0 0.0
2014-Jul-22 13:10N 59°19' E 018°05'0 0.0
2014-Jul-22 07:04N 59°19' E 018°05'0 0.0
2014-Jul-22 06:19N 59°19' E 018°05'2 3.2
2014-Jul-22 05:33N 59°19' E 018°10'10311.4
2014-Jul-21 20:34N 59°27' E 021°31'414.3
2014-Jul-21 20:18N 59°27' E 021°38'1114.5
2014-Jul-21 19:34N 59°29' E 021°59'1514.8
2014-Jul-21 18:33N 59°32' E 022°28'1514.6
2014-Jul-21 17:33N 59°32' E 022°57'1514.8
2014-Jul-21 16:34N 59°32' E 023°26'1514.5
2014-Jul-21 15:32N 59°31' E 023°55'26 5.2
2014-Jul-21 10:33N 59°27' E 024°46'0 0.1
2014-Jul-21 05:26N 59°27' E 024°46'1213.7
2014-Jul-21 04:31N 59°39' E 024°39'1313.6
2014-Jul-21 03:33N 59°50' E 024°55'1616.0
2014-Jul-21 02:33N 59°53' E 025°26'1616.0
2014-Jul-21 01:33N 59°57' E 025°57'1615.8
2014-Jul-21 00:33N 60°01' E 026°28'1515.3
2014-Jul-20 23:33N 59°60' E 026°58'1515.3
2014-Jul-20 22:33N 60°07' E 027°26'8612.3
2014-Jul-20 15:34N 59°56' E 030°16'0 0.1
2014-Jul-20 14:26N 59°56' E 030°16'0 0.0
2014-Jul-20 13:29N 59°56' E 030°16'0 0.0
2014-Jul-20 12:32N 59°56' E 030°16'  
Track history (hours):
 
Tides and Currents Weather Stations Pressure Air Temp Water Temp Dewpoint Dewpoint Depression Visibility Wind Speed Wind Dir Waves Ship Positions

Voyager

Last reported at 2014-Jul-30 12:22 UTC. Time now 2014-Jul-30 13:16 UTC.
Position N 54°38' W 008°26'.

Length 151 m; draft 6 m.

Type: Passenger vessel. MMSI: 309695000.

Date/timePositionNaut miles runAvg speedWind from/ knotsBaromVisibWave heightAir tempDewpointWater temp
2014-Jul-30 12:22N 54°38' W 008°26'0 0.0
2014-Jul-30 11:33N 54°38' W 008°26'0 0.0
2014-Jul-30 10:34N 54°38' W 008°26'0 0.0
2014-Jul-30 09:25N 54°38' W 008°26'0 0.0
2014-Jul-30 08:25N 54°38' W 008°26'0 0.0
2014-Jul-30 07:33N 54°38' W 008°26'6 5.6
2014-Jul-30 06:34N 54°34' W 008°34'4514.5
2014-Jul-30 03:29N 54°26' W 009°49'1515.5
2014-Jul-30 02:33N 54°21' W 010°12'1814.8
2014-Jul-30 01:22N 54°06' W 010°28'1415.5
2014-Jul-30 00:29N 53°52' W 010°34'1516.0
2014-Jul-29 23:33N 53°38' W 010°40'1514.8
2014-Jul-29 22:32N 53°23' W 010°39'1615.5
2014-Jul-29 21:30N 53°08' W 010°27'4214.3
2014-Jul-29 18:33N 52°32' W 009°52'5 0.4
2014-Jul-29 05:33N 52°34' W 009°44'6 6.1
2014-Jul-29 04:30N 52°31' W 009°53'19 9.5
2014-Jul-29 02:31N 52°20' W 010°18'1010.6
2014-Jul-29 01:33N 52°14' W 010°32'1010.3
2014-Jul-29 00:33N 52°07' W 010°45'3510.9
2014-Jul-28 21:18N 51°33' W 010°33'811.1
2014-Jul-28 20:32N 51°25' W 010°28'1111.4
2014-Jul-28 19:33N 51°18' W 010°14'1212.3
2014-Jul-28 18:33N 51°11' W 009°58'1212.0
2014-Jul-28 17:33N 51°04' W 009°42'1211.4
2014-Jul-28 16:28N 50°57' W 009°26'331 9.0
2014-Jul-27 03:30N 50°25' W 000°46'1516.0
2014-Jul-27 02:33N 50°28' W 000°23'1716.6
2014-Jul-27 01:33N 50°31' E 000°03'1716.7
2014-Jul-27 00:33N 50°36' E 000°28'1515.5
2014-Jul-26 23:33N 50°43' E 000°50'1211.7
2014-Jul-26 22:33N 50°49' E 001°05'1414.3
2014-Jul-26 21:33N 50°58' E 001°22'1716.5
2014-Jul-26 20:33N 51°10' E 001°40'1817.9
2014-Jul-26 19:34N 51°24' E 001°58'1615.4
2014-Jul-26 18:33N 51°21' E 002°22'1515.1
2014-Jul-26 17:32N 51°22' E 002°47'9 9.8
2014-Jul-26 16:34N 51°14' E 002°56'0 0.2
2014-Jul-26 15:32N 51°14' E 002°56'0 0.0
2014-Jul-26 14:32N 51°14' E 002°56'0 0.0
2014-Jul-26 13:32N 51°14' E 002°56'0 0.0
2014-Jul-26 12:29N 51°14' E 002°56'0 0.0
2014-Jul-26 11:29N 51°14' E 002°56'0 0.0
2014-Jul-26 10:29N 51°14' E 002°56'4 4.5
2014-Jul-26 09:33N 51°17' E 002°52'1413.6
2014-Jul-26 08:29N 51°31' E 002°43'1717.7
2014-Jul-26 07:31N 51°48' E 002°44'6516.2
2014-Jul-26 03:32N 52°43' E 003°38'1514.6
2014-Jul-26 02:31N 52°54' E 003°54'1815.5
2014-Jul-26 01:20N 53°07' E 004°17'1316.5
2014-Jul-26 00:33N 53°17' E 004°29'1616.1
2014-Jul-25 23:33N 53°31' E 004°44'1716.9
2014-Jul-25 22:33N 53°36' E 005°11'1616.2
2014-Jul-25 21:33N 53°40' E 005°37'1515.4
2014-Jul-25 20:33N 53°45' E 006°02'1514.8
2014-Jul-25 19:33N 53°50' E 006°26'1514.7
2014-Jul-25 18:33N 53°53' E 006°50'1615.3
2014-Jul-25 17:31N 53°58' E 007°16'1616.3
2014-Jul-25 16:33N 54°02' E 007°42'1716.7
2014-Jul-25 15:33N 54°01' E 008°10'1817.7
2014-Jul-25 14:33N 53°56' E 008°39'1413.9
2014-Jul-25 13:33N 53°52' E 009°02'5 4.9
2014-Jul-25 12:33N 53°54' E 009°09'8 7.9
2014-Jul-25 11:33N 54°00' E 009°18'10 7.7
2014-Jul-25 10:16N 54°09' E 009°23'5 5.4
2014-Jul-25 09:21N 54°11' E 009°31'58 7.0
2014-Jul-25 01:06N 54°36' E 011°01'916.3
2014-Jul-25 00:33N 54°35' E 011°16'1716.8
2014-Jul-24 23:34N 54°27' E 011°42'1615.6
2014-Jul-24 22:33N 54°27' E 012°09'1616.0
2014-Jul-24 21:33N 54°41' E 012°25'1514.7
2014-Jul-24 20:33N 54°52' E 012°42'1615.9
2014-Jul-24 19:33N 55°08' E 012°39'1515.4
2014-Jul-24 18:33N 55°23' E 012°39'1312.6
2014-Jul-24 17:33N 55°35' E 012°42'8 7.9
2014-Jul-24 16:33N 55°43' E 012°38'2 1.5
2014-Jul-24 15:31N 55°42' E 012°36'0 0.0
2014-Jul-24 14:31N 55°42' E 012°36'0 0.0
2014-Jul-24 13:31N 55°42' E 012°36'0 0.0
2014-Jul-24 12:31N 55°42' E 012°36'0 0.0
2014-Jul-24 11:31N 55°42' E 012°36'0 0.0
2014-Jul-24 10:31N 55°42' E 012°36'0 0.0
2014-Jul-24 09:31N 55°42' E 012°36'0 0.0
2014-Jul-24 08:31N 55°42' E 012°36'0 0.0
2014-Jul-24 07:31N 55°42' E 012°36'3 3.1
2014-Jul-24 06:34N 55°43' E 012°41'1111.1
2014-Jul-24 05:34N 55°32' E 012°43'1111.4
2014-Jul-24 04:33N 55°21' E 012°40'1312.7
2014-Jul-24 03:34N 55°16' E 013°00'1414.4
2014-Jul-24 02:33N 55°15' E 013°25'1514.7
2014-Jul-24 01:34N 55°14' E 013°51'1515.1
2014-Jul-24 00:34N 55°13' E 014°18'1515.0
2014-Jul-23 23:33N 55°25' E 014°34'1514.8
2014-Jul-23 22:33N 55°33' E 014°56'1515.0
2014-Jul-23 21:33N 55°41' E 015°19'1515.1
2014-Jul-23 20:33N 55°48' E 015°42'1515.2
2014-Jul-23 19:33N 55°56' E 016°06'1515.1
2014-Jul-23 18:33N 56°04' E 016°29'1514.3
2014-Jul-23 17:32N 56°14' E 016°48'1514.9
2014-Jul-23 16:33N 56°27' E 016°57'1514.9
2014-Jul-23 15:33N 56°41' E 017°08'1515.2
2014-Jul-23 14:33N 56°55' E 017°18'1615.5
2014-Jul-23 13:33N 57°10' E 017°28'1615.6
2014-Jul-23 12:33N 57°24' E 017°38'1515.0
2014-Jul-23 11:33N 57°34' E 017°59'9 9.0
2014-Jul-23 10:31N 57°38' E 018°15'0 0.3
2014-Jul-23 09:28N 57°38' E 018°16'0 0.0
2014-Jul-23 08:28N 57°38' E 018°16'0 0.0
2014-Jul-23 07:31N 57°38' E 018°16'0 0.0
2014-Jul-23 06:31N 57°38' E 018°16'0 0.0
2014-Jul-23 05:31N 57°38' E 018°16'0 0.0
2014-Jul-23 04:31N 57°38' E 018°16'5 5.2
2014-Jul-23 03:33N 57°43' E 018°17'1313.4
2014-Jul-23 02:33N 57°56' E 018°23'1513.9
2014-Jul-23 01:29N 58°11' E 018°30'1313.9
2014-Jul-23 00:33N 58°23' E 018°36'1414.4
2014-Jul-22 23:33N 58°37' E 018°44'1414.2
2014-Jul-22 22:33N 58°51' E 018°51'35 7.1
2014-Jul-22 17:34N 59°20' E 018°11'3 2.6
2014-Jul-22 16:28N 59°19' E 018°05'0 0.0
2014-Jul-22 13:10N 59°19' E 018°05'0 0.0
2014-Jul-22 07:04N 59°19' E 018°05'0 0.0
2014-Jul-22 06:19N 59°19' E 018°05'2 3.2
2014-Jul-22 05:33N 59°19' E 018°10'10311.4
2014-Jul-21 20:34N 59°27' E 021°31'414.3
2014-Jul-21 20:18N 59°27' E 021°38'1114.5
2014-Jul-21 19:34N 59°29' E 021°59'1514.8
2014-Jul-21 18:33N 59°32' E 022°28'1514.6
2014-Jul-21 17:33N 59°32' E 022°57'1514.8
2014-Jul-21 16:34N 59°32' E 023°26'1514.5
2014-Jul-21 15:32N 59°31' E 023°55'26 5.2
2014-Jul-21 10:33N 59°27' E 024°46'0 0.1
2014-Jul-21 05:26N 59°27' E 024°46'1213.7
2014-Jul-21 04:31N 59°39' E 024°39'1313.6
2014-Jul-21 03:33N 59°50' E 024°55'1616.0
2014-Jul-21 02:33N 59°53' E 025°26'1616.0
2014-Jul-21 01:33N 59°57' E 025°57'1615.8
2014-Jul-21 00:33N 60°01' E 026°28'1515.3
2014-Jul-20 23:33N 59°60' E 026°58'1515.3
2014-Jul-20 22:33N 60°07' E 027°26'8612.3
2014-Jul-20 15:34N 59°56' E 030°16'0 0.1
2014-Jul-20 14:26N 59°56' E 030°16'0 0.0
2014-Jul-20 13:29N 59°56' E 030°16'0 0.0
2014-Jul-20 12:32N 59°56' E 030°16'  

Dump ship's entire track history